Time;durP1;ratioP1;P1;durP2;ratioP2;P2;SDS_P1;SDS_P2;PMS_P1;PMS_P2;Temp;Humidity;BMP_temperature;BMP_pressure;BME280_temperature;BME280_humidity;BME280_pressure;Samples;Min_cycle;Max_cycle;Signal;HPM_P1;HPM_P2
2021/08/27 00:00:18;;;;;;;5.53;3.60;;;;;;;;;;2080103;28;20014;-66
2021/08/27 00:01:37;;;;;;;4.07;3.20;;;;;;;;;;2086229;28;20025;-66
2021/08/27 00:02:56;;;;;;;3.60;3.25;;;;;;;;;;2080901;28;20063;-66
2021/08/27 00:04:14;;;;;;;3.90;3.40;;;;;;;;;;2081354;28;20025;-65
2021/08/27 00:05:33;;;;;;;3.20;2.90;;;;;;;;;;2079874;28;20076;-66
2021/08/27 00:06:52;;;;;;;7.80;3.15;;;;;;;;;;2077980;28;20033;-66
2021/08/27 00:08:11;;;;;;;7.15;3.38;;;;;;;;;;2083873;28;20026;-66
2021/08/27 00:09:30;;;;;;;4.53;3.67;;;;;;;;;;2081762;28;20029;-66
2021/08/27 00:10:48;;;;;;;4.32;3.35;;;;;;;;;;2081886;28;20395;-66
2021/08/27 00:12:08;;;;;;;6.78;3.35;;;;;;;;;;2082339;28;20037;-66
2021/08/27 00:13:27;;;;;;;3.47;3.00;;;;;;;;;;2081563;28;20041;-66
2021/08/27 00:14:45;;;;;;;7.43;3.50;;;;;;;;;;2082486;28;20029;-66
2021/08/27 00:16:04;;;;;;;6.70;3.28;;;;;;;;;;2087010;28;20049;-66
2021/08/27 00:17:29;;;;;;;4.82;3.35;;;;;;;;;;2079218;28;20395;-66
2021/08/27 00:18:48;;;;;;;3.80;3.15;;;;;;;;;;2079701;28;20034;-66
2021/08/27 00:20:07;;;;;;;4.93;3.00;;;;;;;;;;2073745;28;20029;-66
2021/08/27 00:21:26;;;;;;;4.18;3.28;;;;;;;;;;2081691;28;20025;-65
2021/08/27 00:22:45;;;;;;;5.22;3.13;;;;;;;;;;2078370;28;20018;-66
2021/08/27 00:24:06;;;;;;;5.75;3.40;;;;;;;;;;2077677;28;20120;-65
2021/08/27 00:25:25;;;;;;;4.78;3.45;;;;;;;;;;2080893;28;20467;-65
2021/08/27 00:26:44;;;;;;;4.65;2.35;;;;;;;;;;2079997;28;20025;-65
2021/08/27 00:28:05;;;;;;;4.82;3.15;;;;;;;;;;2081837;28;20100;-65
2021/08/27 00:29:24;;;;;;;3.47;3.15;;;;;;;;;;2079940;28;20029;-65
2021/08/27 00:30:43;;;;;;;4.82;2.90;;;;;;;;;;2083362;28;20478;-65
2021/08/27 00:32:02;;;;;;;5.78;2.85;;;;;;;;;;2078040;28;20042;-65
2021/08/27 00:33:21;;;;;;;5.55;2.70;;;;;;;;;;2074806;28;20108;-65
2021/08/27 00:34:40;;;;;;;4.53;3.15;;;;;;;;;;2080384;28;20025;-64
2021/08/27 00:35:59;;;;;;;6.43;2.78;;;;;;;;;;2078987;28;20112;-65
2021/08/27 00:37:17;;;;;;;5.50;3.03;;;;;;;;;;2080033;28;20033;-65
2021/08/27 00:38:36;;;;;;;3.83;2.40;;;;;;;;;;2079122;28;20025;-65
2021/08/27 00:39:55;;;;;;;5.63;3.42;;;;;;;;;;2076928;28;20030;-65
2021/08/27 00:41:14;;;;;;;4.32;2.55;;;;;;;;;;2079419;28;20022;-65
2021/08/27 00:42:33;;;;;;;4.63;2.85;;;;;;;;;;2080978;28;20025;-65
2021/08/27 00:43:52;;;;;;;2.67;2.47;;;;;;;;;;2074858;28;20018;-66
2021/08/27 00:45:11;;;;;;;4.28;2.90;;;;;;;;;;2078851;28;20125;-65
2021/08/27 00:46:29;;;;;;;5.03;2.97;;;;;;;;;;2075245;28;20491;-65
2021/08/27 00:47:48;;;;;;;4.60;3.03;;;;;;;;;;2079894;28;20033;-65
2021/08/27 00:49:07;;;;;;;4.68;3.25;;;;;;;;;;2079205;28;20029;-65
2021/08/27 00:50:27;;;;;;;2.97;2.65;;;;;;;;;;2084049;28;20029;-65
2021/08/27 00:51:45;;;;;;;4.05;2.88;;;;;;;;;;2080262;28;20057;-64
2021/08/27 00:53:05;;;;;;;5.30;2.83;;;;;;;;;;2075187;28;20030;-65
2021/08/27 00:54:24;;;;;;;3.47;3.13;;;;;;;;;;2079915;28;20108;-66
2021/08/27 00:55:44;;;;;;;5.20;3.30;;;;;;;;;;2077272;28;20029;-65
2021/08/27 00:57:06;;;;;;;6.13;2.97;;;;;;;;;;2079694;28;20033;-65
2021/08/27 00:58:25;;;;;;;9.60;2.88;;;;;;;;;;2078025;28;20017;-64
2021/08/27 00:59:44;;;;;;;4.22;2.67;;;;;;;;;;2080840;28;20030;-65
2021/08/27 01:01:02;;;;;;;5.80;2.47;;;;;;;;;;2081357;28;20029;-65
2021/08/27 01:02:21;;;;;;;3.92;2.72;;;;;;;;;;2078328;28;20581;-65
2021/08/27 01:03:40;;;;;;;5.15;2.88;;;;;;;;;;2079041;28;20021;-65
2021/08/27 01:04:59;;;;;;;6.00;3.00;;;;;;;;;;2081030;28;20101;-65
2021/08/27 01:06:21;;;;;;;3.08;2.75;;;;;;;;;;2080575;28;20116;-65
2021/08/27 01:07:52;;;;;;;3.47;2.70;;;;;;;;;;2080265;28;20029;-65
2021/08/27 01:09:36;;;;;;;5.63;2.58;;;;;;;;;;2078902;28;20037;-65
2021/08/27 01:11:02;;;;;;;2.90;2.65;;;;;;;;;;2079384;28;20037;-65
2021/08/27 01:12:27;;;;;;;6.43;2.65;;;;;;;;;;2081041;28;20021;-65
2021/08/27 01:13:54;;;;;;;3.50;2.50;;;;;;;;;;2080969;28;20025;-65
2021/08/27 01:15:30;;;;;;;2.95;2.75;;;;;;;;;;2079412;28;20042;-65
2021/08/27 01:16:56;;;;;;;3.85;2.45;;;;;;;;;;2077619;28;20039;-65
2021/08/27 01:18:15;;;;;;;3.33;2.72;;;;;;;;;;2078509;28;20014;-65
2021/08/27 01:19:54;;;;;;;4.18;2.95;;;;;;;;;;2086399;28;20021;-65
2021/08/27 01:21:30;;;;;;;5.13;2.65;;;;;;;;;;2080650;28;20022;-65
2021/08/27 01:22:49;;;;;;;5.13;2.70;;;;;;;;;;2079177;28;20021;-67
2021/08/27 01:24:10;;;;;;;7.07;2.78;;;;;;;;;;2079588;28;20498;-65
2021/08/27 01:25:30;;;;;;;2.78;2.58;;;;;;;;;;2072680;28;20472;-65
2021/08/27 01:26:53;;;;;;;3.55;2.75;;;;;;;;;;2077800;28;20029;-65
2021/08/27 01:28:13;;;;;;;3.25;2.50;;;;;;;;;;2078529;28;20563;-66
2021/08/27 01:29:41;;;;;;;3.47;2.58;;;;;;;;;;2080428;28;20025;-65
2021/08/27 01:31:16;;;;;;;2.83;2.63;;;;;;;;;;2080103;28;20034;-65
2021/08/27 01:32:39;;;;;;;2.95;2.30;;;;;;;;;;2081154;28;20030;-65
2021/08/27 01:34:01;;;;;;;5.78;2.50;;;;;;;;;;2078163;28;20025;-65
2021/08/27 01:35:21;;;;;;;3.40;3.10;;;;;;;;;;2076762;28;20026;-66
2021/08/27 01:36:40;;;;;;;3.22;2.92;;;;;;;;;;2081016;28;20479;-65
2021/08/27 01:38:01;;;;;;;3.90;2.58;;;;;;;;;;2079604;28;20037;-65
2021/08/27 01:39:21;;;;;;;3.00;2.80;;;;;;;;;;2078495;28;20021;-65
2021/08/27 01:40:42;;;;;;;3.53;2.65;;;;;;;;;;2079627;28;20104;-65
2021/08/27 01:42:03;;;;;;;2.75;2.55;;;;;;;;;;2074038;28;20030;-65
2021/08/27 01:43:23;;;;;;;3.53;2.58;;;;;;;;;;2075096;28;20014;-65
2021/08/27 01:44:44;;;;;;;6.60;2.55;;;;;;;;;;2078822;28;20041;-65
2021/08/27 01:46:03;;;;;;;3.05;2.50;;;;;;;;;;2079806;28;20029;-65
2021/08/27 01:47:24;;;;;;;4.45;2.50;;;;;;;;;;2076397;28;20500;-65
2021/08/27 01:48:44;;;;;;;3.40;3.00;;;;;;;;;;2078977;28;20041;-65
2021/08/27 01:50:04;;;;;;;3.35;2.70;;;;;;;;;;2078782;28;20033;-65
2021/08/27 01:51:23;;;;;;;3.35;2.55;;;;;;;;;;2078606;28;20025;-65
2021/08/27 01:52:43;;;;;;;4.15;2.65;;;;;;;;;;2076301;28;20057;-65
2021/08/27 01:54:02;;;;;;;3.83;2.53;;;;;;;;;;2078381;28;20045;-65
2021/08/27 01:55:22;;;;;;;2.97;2.65;;;;;;;;;;2079948;28;20029;-65
2021/08/27 01:56:41;;;;;;;4.43;2.88;;;;;;;;;;2082589;28;20029;-64
2021/08/27 01:58:01;;;;;;;6.22;3.15;;;;;;;;;;2077259;28;20061;-65
2021/08/27 01:59:20;;;;;;;4.65;3.10;;;;;;;;;;2079735;28;20025;-64
2021/08/27 02:00:40;;;;;;;5.40;2.95;;;;;;;;;;2077920;28;20026;-65
2021/08/27 02:02:00;;;;;;;2.90;2.70;;;;;;;;;;2081715;28;20021;-64
2021/08/27 02:03:19;;;;;;;3.70;2.90;;;;;;;;;;2080965;28;20053;-65
2021/08/27 02:04:39;;;;;;;3.85;3.00;;;;;;;;;;2079856;28;20021;-64
2021/08/27 02:05:58;;;;;;;4.10;3.33;;;;;;;;;;2078314;28;20061;-65
2021/08/27 02:07:17;;;;;;;2.83;2.63;;;;;;;;;;2078608;28;20037;-65
2021/08/27 02:08:37;;;;;;;6.78;2.80;;;;;;;;;;2086181;28;20025;-64
2021/08/27 02:09:57;;;;;;;3.67;3.30;;;;;;;;;;2081878;28;20493;-65
2021/08/27 02:11:16;;;;;;;4.20;3.22;;;;;;;;;;2081849;28;20029;-64
2021/08/27 02:12:35;;;;;;;4.95;3.17;;;;;;;;;;2078852;28;20029;-65
2021/08/27 02:13:55;;;;;;;3.63;3.40;;;;;;;;;;2083029;28;20034;-64
2021/08/27 02:15:14;;;;;;;5.72;3.55;;;;;;;;;;2081537;28;20037;-64
2021/08/27 02:16:32;;;;;;;5.05;3.05;;;;;;;;;;2084773;28;20108;-64
2021/08/27 02:17:51;;;;;;;4.78;3.20;;;;;;;;;;2080270;28;20025;-65
2021/08/27 02:19:10;;;;;;;3.35;2.80;;;;;;;;;;2073888;28;20443;-64
2021/08/27 02:20:29;;;;;;;3.55;3.35;;;;;;;;;;2078887;28;20029;-64
2021/08/27 02:21:52;;;;;;;3.67;3.35;;;;;;;;;;2080602;28;20021;-64
2021/08/27 02:23:12;;;;;;;4.43;3.50;;;;;;;;;;2080778;28;20133;-65
2021/08/27 02:24:37;;;;;;;4.50;3.50;;;;;;;;;;2080248;28;20451;-64
2021/08/27 02:25:56;;;;;;;5.60;3.55;;;;;;;;;;2082945;28;20042;-64
2021/08/27 02:27:16;;;;;;;3.83;3.28;;;;;;;;;;2077636;28;20112;-64
2021/08/27 02:28:35;;;;;;;5.07;3.13;;;;;;;;;;2082524;28;20026;-65
2021/08/27 02:29:56;;;;;;;4.78;3.10;;;;;;;;;;2081029;28;20147;-64
2021/08/27 02:31:15;;;;;;;3.47;3.28;;;;;;;;;;2081536;28;20029;-65
2021/08/27 02:32:34;;;;;;;5.15;3.40;;;;;;;;;;2081637;28;20034;-64
2021/08/27 02:33:54;;;;;;;3.42;3.13;;;;;;;;;;2079451;28;20025;-65
2021/08/27 02:35:14;;;;;;;5.43;3.17;;;;;;;;;;2080869;28;20038;-65
2021/08/27 02:36:33;;;;;;;3.85;3.45;;;;;;;;;;2078210;28;20475;-65
2021/08/27 02:37:52;;;;;;;4.68;3.30;;;;;;;;;;2082761;28;20029;-65
2021/08/27 02:39:14;;;;;;;9.50;3.20;;;;;;;;;;2082606;28;20037;-65
2021/08/27 02:40:33;;;;;;;4.07;3.10;;;;;;;;;;2081360;28;20017;-65
2021/08/27 02:41:52;;;;;;;3.60;3.25;;;;;;;;;;2081117;28;20034;-65
2021/08/27 02:43:12;;;;;;;4.80;3.53;;;;;;;;;;2079650;28;20033;-65
2021/08/27 02:44:30;;;;;;;3.67;3.38;;;;;;;;;;2079310;28;20037;-65
2021/08/27 02:45:49;;;;;;;3.55;3.00;;;;;;;;;;2080560;28;20029;-65
2021/08/27 02:47:08;;;;;;;3.55;3.25;;;;;;;;;;2079402;28;20149;-65
2021/08/27 02:48:27;;;;;;;7.95;3.30;;;;;;;;;;2080935;28;20041;-65
2021/08/27 02:49:45;;;;;;;3.53;3.33;;;;;;;;;;2077439;28;20057;-65
2021/08/27 02:51:12;;;;;;;4.20;3.80;;;;;;;;;;2080949;28;20037;-65
2021/08/27 02:52:37;;;;;;;6.22;3.63;;;;;;;;;;2079074;28;20026;-65
2021/08/27 02:53:57;;;;;;;5.40;2.90;;;;;;;;;;2081122;28;20026;-65
2021/08/27 02:55:17;;;;;;;3.25;3.03;;;;;;;;;;2077361;28;20092;-65
2021/08/27 02:56:38;;;;;;;4.38;3.75;;;;;;;;;;2080873;28;20037;-65
2021/08/27 02:58:05;;;;;;;3.40;3.10;;;;;;;;;;2080504;28;20025;-65
2021/08/27 02:59:25;;;;;;;3.55;3.20;;;;;;;;;;2077821;28;20030;-65
2021/08/27 03:01:04;;;;;;;3.28;2.88;;;;;;;;;;2082290;28;20021;-65
2021/08/27 03:02:23;;;;;;;3.80;2.80;;;;;;;;;;2077484;28;20026;-65
2021/08/27 03:03:47;;;;;;;3.17;2.88;;;;;;;;;;2073678;28;20030;-65
2021/08/27 03:05:11;;;;;;;5.88;3.10;;;;;;;;;;2075808;28;20026;-65
2021/08/27 03:06:33;;;;;;;2.70;2.50;;;;;;;;;;2082213;28;20387;-65
2021/08/27 03:08:00;;;;;;;4.55;3.42;;;;;;;;;;2078201;28;20060;-65
2021/08/27 03:09:20;;;;;;;3.58;2.97;;;;;;;;;;2076928;28;21257;-64
2021/08/27 03:10:50;;;;;;;4.72;2.90;;;;;;;;;;2079868;28;20495;-65
2021/08/27 03:12:10;;;;;;;3.10;2.90;;;;;;;;;;2080038;28;20033;-65
2021/08/27 03:13:32;;;;;;;3.85;2.92;;;;;;;;;;2080463;28;20098;-65
2021/08/27 03:14:55;;;;;;;4.60;2.92;;;;;;;;;;2081664;28;20021;-65
2021/08/27 03:16:16;;;;;;;3.03;2.50;;;;;;;;;;2079910;28;20034;-65
2021/08/27 03:17:39;;;;;;;4.10;2.80;;;;;;;;;;2079879;28;20021;-65
2021/08/27 03:18:58;;;;;;;;;;;;;;;;;;2081094;28;20029;-65
2021/08/27 03:20:21;;;;;;;3.40;2.72;;;;;;;;;;2080305;28;19909;-65
2021/08/27 03:21:42;;;;;;;3.20;2.90;;;;;;;;;;2082433;28;20025;-65
2021/08/27 03:23:05;;;;;;;3.22;2.92;;;;;;;;;;2082158;28;20029;-65
2021/08/27 03:24:24;;;;;;;;;;;;;;;;;;2081363;28;20034;-65
2021/08/27 03:25:45;;;;;;;2.88;2.67;;;;;;;;;;2081035;28;19905;-65
2021/08/27 03:27:06;;;;;;;3.22;2.80;;;;;;;;;;2079995;28;20057;-65
2021/08/27 03:28:26;;;;;;;3.42;3.22;;;;;;;;;;2082843;28;20025;-65
2021/08/27 03:29:48;;;;;;;2.75;2.55;;;;;;;;;;2077726;28;20121;-65
2021/08/27 03:31:07;;;;;;;11.95;9.07;;;;;;;;;;2093333;28;20419;-65
2021/08/27 03:32:27;;;;;;;3.50;3.20;;;;;;;;;;2083464;28;20025;-65
2021/08/27 03:33:46;;;;;;;3.00;2.80;;;;;;;;;;2077163;28;20034;-65
2021/08/27 03:35:05;;;;;;;4.20;3.42;;;;;;;;;;2080443;28;20470;-65
2021/08/27 03:36:28;;;;;;;6.80;5.88;;;;;;;;;;2080340;28;20112;-65
2021/08/27 03:37:49;;;;;;;3.80;3.55;;;;;;;;;;2083059;28;20029;-65
2021/08/27 03:39:08;;;;;;;6.38;5.30;;;;;;;;;;2078250;28;20029;-65
2021/08/27 03:40:27;;;;;;;5.03;3.78;;;;;;;;;;2075553;28;20026;-65
2021/08/27 03:41:46;;;;;;;3.42;3.10;;;;;;;;;;2081079;28;20022;-65
2021/08/27 03:43:06;;;;;;;3.20;3.00;;;;;;;;;;2077259;28;20033;-66
2021/08/27 03:44:25;;;;;;;4.93;3.05;;;;;;;;;;2081439;28;20116;-65
2021/08/27 03:45:44;;;;;;;3.25;2.97;;;;;;;;;;2079917;28;20112;-66
2021/08/27 03:47:03;;;;;;;4.68;3.22;;;;;;;;;;2081379;28;20044;-66
2021/08/27 03:48:23;;;;;;;4.05;3.40;;;;;;;;;;2080072;28;20037;-66
2021/08/27 03:49:42;;;;;;;3.85;3.00;;;;;;;;;;2081138;28;20096;-66
2021/08/27 03:51:02;;;;;;;8.23;3.50;;;;;;;;;;2081908;28;20030;-66
2021/08/27 03:52:21;;;;;;;3.75;3.20;;;;;;;;;;2076596;28;20021;-65
2021/08/27 03:53:40;;;;;;;3.30;3.00;;;;;;;;;;2078380;28;20049;-65
2021/08/27 03:55:01;;;;;;;3.42;3.13;;;;;;;;;;2080090;28;20029;-66
2021/08/27 03:56:20;;;;;;;3.38;3.15;;;;;;;;;;2080010;28;20191;-66
2021/08/27 03:57:41;;;;;;;5.47;3.33;;;;;;;;;;2077822;28;20022;-66
2021/08/27 03:59:00;;;;;;;4.38;3.42;;;;;;;;;;2081266;28;20483;-65
2021/08/27 04:00:21;;;;;;;4.13;3.50;;;;;;;;;;2074209;28;20486;-65
2021/08/27 04:01:40;;;;;;;3.47;3.20;;;;;;;;;;2081461;28;20026;-65
2021/08/27 04:02:59;;;;;;;4.00;2.88;;;;;;;;;;2079880;28;20029;-65
2021/08/27 04:04:24;;;;;;;3.50;3.20;;;;;;;;;;2078339;28;21161;-65
2021/08/27 04:06:01;;;;;;;3.80;3.35;;;;;;;;;;2078028;28;20033;-65
2021/08/27 04:07:20;;;;;;;2.90;2.60;;;;;;;;;;2077341;28;20400;-66
2021/08/27 04:08:41;;;;;;;3.40;3.10;;;;;;;;;;2076929;28;20033;-65
2021/08/27 04:10:00;;;;;;;3.88;3.10;;;;;;;;;;2079386;28;20017;-65
2021/08/27 04:11:19;;;;;;;2.60;2.40;;;;;;;;;;2078923;28;20017;-65
2021/08/27 04:12:40;;;;;;;5.95;3.00;;;;;;;;;;2079252;28;21274;-65
2021/08/27 04:13:59;;;;;;;3.45;3.15;;;;;;;;;;2081348;28;20499;-65
2021/08/27 04:15:22;;;;;;;2.88;2.67;;;;;;;;;;2078737;28;20053;-65
2021/08/27 04:16:42;;;;;;;3.53;2.80;;;;;;;;;;2079843;28;20037;-65
2021/08/27 04:18:01;;;;;;;4.50;2.42;;;;;;;;;;2076935;28;20034;-64
2021/08/27 04:19:19;;;;;;;5.05;3.10;;;;;;;;;;2080505;28;20025;-65
2021/08/27 04:20:38;;;;;;;3.60;2.63;;;;;;;;;;2078025;28;20108;-64
2021/08/27 04:21:58;;;;;;;4.30;2.80;;;;;;;;;;2075121;28;20037;-64
2021/08/27 04:23:17;;;;;;;2.75;2.55;;;;;;;;;;2077841;28;20021;-66
2021/08/27 04:24:35;;;;;;;2.35;2.15;;;;;;;;;;2076822;28;20025;-65
2021/08/27 04:25:54;;;;;;;3.83;2.50;;;;;;;;;;2076800;28;20030;-66
2021/08/27 04:27:13;;;;;;;2.60;2.40;;;;;;;;;;2077411;28;20057;-66
2021/08/27 04:28:32;;;;;;;3.17;2.97;;;;;;;;;;2082480;28;20391;-65
2021/08/27 04:29:51;;;;;;;2.75;2.58;;;;;;;;;;2079600;28;20029;-65
2021/08/27 04:31:10;;;;;;;3.00;2.70;;;;;;;;;;2077282;28;20407;-65
2021/08/27 04:32:29;;;;;;;2.90;2.70;;;;;;;;;;2078108;28;20033;-65
2021/08/27 04:33:47;;;;;;;3.58;2.30;;;;;;;;;;2072324;28;20038;-65
2021/08/27 04:35:06;;;;;;;2.35;2.25;;;;;;;;;;2079517;28;20399;-65
2021/08/27 04:36:25;;;;;;;2.90;2.70;;;;;;;;;;2081553;28;20100;-65
2021/08/27 04:37:44;;;;;;;2.33;2.20;;;;;;;;;;2080259;28;20033;-67
2021/08/27 04:39:03;;;;;;;3.40;2.72;;;;;;;;;;2082110;28;20074;-66
2021/08/27 04:40:22;;;;;;;3.78;2.60;;;;;;;;;;2079001;28;20041;-66
2021/08/27 04:41:41;;;;;;;3.33;3.03;;;;;;;;;;2080198;28;20025;-66
2021/08/27 04:43:00;;;;;;;4.13;3.10;;;;;;;;;;2078853;28;20025;-66
2021/08/27 04:44:19;;;;;;;3.03;2.63;;;;;;;;;;2079524;28;20034;-66
2021/08/27 04:45:38;;;;;;;3.08;2.88;;;;;;;;;;2077889;28;20029;-67
2021/08/27 04:46:57;;;;;;;3.28;3.08;;;;;;;;;;2079658;28;20041;-66
2021/08/27 04:48:16;;;;;;;5.32;3.10;;;;;;;;;;2079810;28;20030;-66
2021/08/27 04:49:35;;;;;;;3.13;2.83;;;;;;;;;;2080131;28;20026;-66
2021/08/27 04:50:53;;;;;;;3.40;3.20;;;;;;;;;;2074381;28;20057;-65
2021/08/27 04:52:12;;;;;;;4.03;3.13;;;;;;;;;;2076305;28;20067;-66
2021/08/27 04:53:31;;;;;;;3.65;3.33;;;;;;;;;;2081433;28;20021;-66
2021/08/27 04:54:50;;;;;;;4.15;3.60;;;;;;;;;;2080190;28;20495;-66
2021/08/27 04:56:09;;;;;;;5.47;3.50;;;;;;;;;;2080630;28;20108;-67
2021/08/27 04:57:29;;;;;;;4.15;3.13;;;;;;;;;;2079464;28;20048;-66
2021/08/27 04:58:48;;;;;;;3.78;3.45;;;;;;;;;;2082886;28;20025;-67
2021/08/27 05:00:08;;;;;;;4.60;3.45;;;;;;;;;;2079073;28;20025;-67
2021/08/27 05:01:27;;;;;;;5.22;3.40;;;;;;;;;;2079230;28;20026;-68
2021/08/27 05:02:46;;;;;;;7.45;3.60;;;;;;;;;;2079253;28;20022;-67
2021/08/27 05:04:05;;;;;;;5.63;3.63;;;;;;;;;;2079023;28;20109;-67
2021/08/27 05:05:24;;;;;;;4.20;3.40;;;;;;;;;;2079015;28;20089;-67
2021/08/27 05:06:44;;;;;;;4.63;3.55;;;;;;;;;;2077112;28;20026;-68
2021/08/27 05:08:02;;;;;;;3.78;3.47;;;;;;;;;;2081473;28;20033;-67
2021/08/27 05:09:21;;;;;;;3.67;3.35;;;;;;;;;;2080775;28;20447;-68
2021/08/27 05:10:40;;;;;;;4.20;3.78;;;;;;;;;;2080496;28;20025;-68
2021/08/27 05:12:00;;;;;;;4.57;3.53;;;;;;;;;;2078867;28;20033;-68
2021/08/27 05:13:19;;;;;;;6.00;3.47;;;;;;;;;;2080854;28;20025;-69
2021/08/27 05:14:38;;;;;;;3.40;3.15;;;;;;;;;;2079949;28;20434;-68
2021/08/27 05:15:56;;;;;;;3.88;3.28;;;;;;;;;;2081440;28;20352;-68
2021/08/27 05:17:15;;;;;;;3.70;3.35;;;;;;;;;;2080561;28;20034;-68
2021/08/27 05:18:34;;;;;;;3.67;3.42;;;;;;;;;;2080052;28;20104;-68
2021/08/27 05:19:53;;;;;;;3.78;3.13;;;;;;;;;;2080164;28;20120;-69
2021/08/27 05:21:15;;;;;;;4.72;3.25;;;;;;;;;;2078741;28;20051;-67
2021/08/27 05:22:34;;;;;;;3.70;3.22;;;;;;;;;;2077622;28;20025;-68
2021/08/27 05:23:53;;;;;;;3.70;3.40;;;;;;;;;;2077380;28;20143;-67
2021/08/27 05:25:12;;;;;;;7.38;3.25;;;;;;;;;;2080271;28;20057;-67
2021/08/27 05:26:31;;;;;;;3.35;3.05;;;;;;;;;;2079045;28;20391;-67
2021/08/27 05:27:50;;;;;;;3.83;3.60;;;;;;;;;;2075989;28;20033;-67
2021/08/27 05:29:09;;;;;;;3.97;3.67;;;;;;;;;;2077606;28;20033;-67
2021/08/27 05:30:28;;;;;;;5.10;3.47;;;;;;;;;;2079484;28;20038;-68
2021/08/27 05:31:46;;;;;;;4.20;3.22;;;;;;;;;;2078769;28;20126;-68
2021/08/27 05:33:06;;;;;;;4.78;3.60;;;;;;;;;;2076041;28;20113;-67
2021/08/27 05:34:24;;;;;;;4.15;3.28;;;;;;;;;;2072750;28;20033;-68
2021/08/27 05:35:43;;;;;;;4.22;3.70;;;;;;;;;;2079874;28;20042;-68
2021/08/27 05:37:03;;;;;;;5.53;3.92;;;;;;;;;;2079790;28;20122;-68
2021/08/27 05:38:22;;;;;;;5.35;3.75;;;;;;;;;;2077275;28;20356;-69
2021/08/27 05:39:40;;;;;;;4.15;3.80;;;;;;;;;;2081050;28;20037;-69
2021/08/27 05:40:59;;;;;;;3.90;3.60;;;;;;;;;;2081366;28;20395;-69
2021/08/27 05:42:18;;;;;;;4.72;3.92;;;;;;;;;;2079630;28;20025;-69
2021/08/27 05:43:37;;;;;;;5.35;3.63;;;;;;;;;;2081976;28;20029;-69
2021/08/27 05:44:56;;;;;;;4.47;3.53;;;;;;;;;;2079857;28;20029;-69
2021/08/27 05:46:16;;;;;;;6.20;4.50;;;;;;;;;;2080991;28;20029;-69
2021/08/27 05:47:35;;;;;;;5.25;3.70;;;;;;;;;;2078320;28;20026;-69
2021/08/27 05:48:54;;;;;;;6.03;3.90;;;;;;;;;;2079988;28;20057;-69
2021/08/27 05:50:14;;;;;;;4.18;3.88;;;;;;;;;;2080184;28;20400;-72
2021/08/27 05:51:33;;;;;;;4.93;3.83;;;;;;;;;;2079429;28;20022;-69
2021/08/27 05:52:52;;;;;;;5.00;4.53;;;;;;;;;;2080919;28;20052;-68
2021/08/27 05:54:10;;;;;;;7.32;6.45;;;;;;;;;;2079760;28;20022;-69
2021/08/27 05:55:29;;;;;;;5.15;4.07;;;;;;;;;;2081911;28;20022;-68
2021/08/27 05:56:48;;;;;;;11.88;8.20;;;;;;;;;;2077195;28;20041;-68
2021/08/27 05:58:07;;;;;;;5.43;4.13;;;;;;;;;;2079252;28;20088;-69
2021/08/27 05:59:25;;;;;;;4.13;3.70;;;;;;;;;;2077588;28;20483;-68
2021/08/27 06:00:44;;;;;;;4.03;3.72;;;;;;;;;;2081944;28;20112;-68
2021/08/27 06:02:03;;;;;;;4.20;3.90;;;;;;;;;;2081289;28;20030;-69
2021/08/27 06:03:22;;;;;;;5.30;4.10;;;;;;;;;;2079293;28;20101;-68
2021/08/27 06:04:41;;;;;;;6.03;4.00;;;;;;;;;;2079286;28;20172;-68
2021/08/27 06:06:00;;;;;;;4.75;3.80;;;;;;;;;;2080141;28;20033;-68
2021/08/27 06:07:18;;;;;;;6.57;4.43;;;;;;;;;;2079373;28;20029;-69
2021/08/27 06:08:37;;;;;;;5.63;3.97;;;;;;;;;;2078398;28;20199;-69
2021/08/27 06:09:56;;;;;;;4.97;4.00;;;;;;;;;;2080215;28;20045;-69
2021/08/27 06:11:15;;;;;;;5.97;4.05;;;;;;;;;;2082446;28;20026;-69
2021/08/27 06:12:34;;;;;;;3.85;3.45;;;;;;;;;;2081953;28;20022;-69
2021/08/27 06:13:53;;;;;;;4.40;3.65;;;;;;;;;;2083890;28;20029;-69
2021/08/27 06:15:13;;;;;;;5.35;3.50;;;;;;;;;;2083248;28;20042;-69
2021/08/27 06:16:33;;;;;;;4.40;3.70;;;;;;;;;;2078814;28;20025;-69
2021/08/27 06:17:52;;;;;;;3.95;3.65;;;;;;;;;;2075995;28;20045;-69
2021/08/27 06:19:11;;;;;;;7.10;3.80;;;;;;;;;;2080098;28;20097;-69
2021/08/27 06:20:32;;;;;;;8.77;3.70;;;;;;;;;;2084367;28;20029;-69
2021/08/27 06:21:52;;;;;;;5.07;3.63;;;;;;;;;;2077094;28;20021;-69
2021/08/27 06:23:11;;;;;;;4.03;3.72;;;;;;;;;;2080896;28;20018;-69
2021/08/27 06:24:30;;;;;;;4.00;3.70;;;;;;;;;;2081607;28;20018;-69
2021/08/27 06:25:49;;;;;;;4.60;3.72;;;;;;;;;;2081637;28;20444;-69
2021/08/27 06:27:08;;;;;;;6.18;3.63;;;;;;;;;;2080771;28;20125;-69
2021/08/27 06:28:27;;;;;;;3.47;3.28;;;;;;;;;;2082610;28;20297;-69
2021/08/27 06:29:49;;;;;;;3.70;3.40;;;;;;;;;;2081105;28;20037;-68
2021/08/27 06:31:08;;;;;;;4.22;3.90;;;;;;;;;;2080812;28;20045;-70
2021/08/27 06:32:27;;;;;;;3.58;3.20;;;;;;;;;;2074204;28;20034;-69
2021/08/27 06:33:46;;;;;;;4.93;3.50;;;;;;;;;;2080359;28;20030;-69
2021/08/27 06:35:05;;;;;;;5.72;3.72;;;;;;;;;;2081211;28;20037;-69
2021/08/27 06:36:24;;;;;;;4.28;3.97;;;;;;;;;;2083165;28;20029;-69
2021/08/27 06:39:21;;;;;;;5.05;3.90;;;;;;;;;;2080669;28;20100;-69
2021/08/27 06:40:40;;;;;;;5.40;3.90;;;;;;;;;;2082998;28;20025;-69
2021/08/27 06:41:58;;;;;;;4.00;3.70;;;;;;;;;;2080264;28;20038;-68
2021/08/27 06:43:17;;;;;;;6.43;3.50;;;;;;;;;;2081727;28;20026;-69
2021/08/27 06:44:36;;;;;;;4.45;3.95;;;;;;;;;;2081647;28;20547;-69
2021/08/27 06:45:57;;;;;;;3.97;3.58;;;;;;;;;;2080292;28;20037;-69
2021/08/27 06:47:15;;;;;;;9.38;3.70;;;;;;;;;;2080373;28;20033;-69
2021/08/27 06:48:35;;;;;;;4.00;3.70;;;;;;;;;;2084374;28;20029;-69
2021/08/27 06:49:53;;;;;;;4.47;4.18;;;;;;;;;;2078567;28;20120;-68
2021/08/27 06:51:13;;;;;;;4.75;3.78;;;;;;;;;;2080353;28;20550;-68
2021/08/27 06:52:32;;;;;;;3.70;3.30;;;;;;;;;;2080674;28;20045;-68
2021/08/27 06:53:53;;;;;;;4.90;3.65;;;;;;;;;;2081298;28;20033;-69
2021/08/27 06:55:12;;;;;;;6.88;3.83;;;;;;;;;;2082187;28;20029;-69
2021/08/27 06:56:31;;;;;;;4.63;4.32;;;;;;;;;;2076743;28;20041;-69
2021/08/27 06:57:50;;;;;;;6.93;5.25;;;;;;;;;;2081423;28;20025;-69
2021/08/27 06:59:09;;;;;;;4.15;3.75;;;;;;;;;;2082857;28;20030;-68
2021/08/27 07:00:27;;;;;;;5.15;4.45;;;;;;;;;;2082012;28;20216;-69
2021/08/27 07:01:46;;;;;;;4.15;3.85;;;;;;;;;;2083252;28;20022;-69
2021/08/27 07:03:05;;;;;;;4.22;3.83;;;;;;;;;;2081786;28;20558;-68
2021/08/27 07:04:24;;;;;;;5.00;4.45;;;;;;;;;;2074156;28;20104;-68
2021/08/27 07:05:43;;;;;;;4.95;4.22;;;;;;;;;;2081121;28;20053;-69
2021/08/27 07:07:02;;;;;;;4.95;4.07;;;;;;;;;;2082372;28;20492;-69
2021/08/27 07:08:21;;;;;;;4.80;4.28;;;;;;;;;;2083022;28;20115;-68
2021/08/27 07:09:40;;;;;;;4.90;4.07;;;;;;;;;;2077461;28;20116;-68
2021/08/27 07:10:59;;;;;;;5.65;3.90;;;;;;;;;;2082297;28;20034;-68
2021/08/27 07:12:18;;;;;;;7.78;3.92;;;;;;;;;;2082262;28;20061;-68
2021/08/27 07:13:37;;;;;;;4.55;3.78;;;;;;;;;;2081688;28;20029;-68
2021/08/27 07:14:56;;;;;;;4.72;4.30;;;;;;;;;;2081189;28;20445;-69
2021/08/27 07:16:15;;;;;;;5.43;4.00;;;;;;;;;;2082583;28;20037;-69
2021/08/27 07:17:34;;;;;;;4.10;3.80;;;;;;;;;;2088440;28;20457;-69
2021/08/27 07:18:52;;;;;;;4.32;4.03;;;;;;;;;;2080507;28;20511;-71
2021/08/27 07:20:12;;;;;;;6.68;4.32;;;;;;;;;;2078873;28;20017;-69
2021/08/27 07:21:31;;;;;;;4.00;3.47;;;;;;;;;;2081896;28;20030;-69
2021/08/27 07:22:50;;;;;;;4.80;4.03;;;;;;;;;;2075407;28;20037;-69
2021/08/27 07:24:09;;;;;;;4.28;3.95;;;;;;;;;;2079531;28;20399;-69
2021/08/27 07:25:29;;;;;;;4.05;3.75;;;;;;;;;;2076089;28;20108;-68
2021/08/27 07:26:47;;;;;;;4.35;4.05;;;;;;;;;;2081096;28;20033;-68
2021/08/27 07:28:06;;;;;;;4.35;3.58;;;;;;;;;;2080452;28;20030;-68
2021/08/27 07:29:25;;;;;;;4.63;4.13;;;;;;;;;;2082172;28;20026;-68
2021/08/27 07:30:44;;;;;;;5.20;4.70;;;;;;;;;;2086371;28;20029;-68
2021/08/27 07:32:06;;;;;;;5.30;4.35;;;;;;;;;;2076984;28;20053;-68
2021/08/27 07:33:25;;;;;;;5.25;4.05;;;;;;;;;;2077701;28;20021;-68
2021/08/27 07:34:44;;;;;;;4.50;4.10;;;;;;;;;;2079275;28;20120;-68
2021/08/27 07:36:03;;;;;;;4.20;3.80;;;;;;;;;;2078330;28;20081;-69
2021/08/27 07:37:22;;;;;;;4.05;3.75;;;;;;;;;;2078199;28;20037;-69
2021/08/27 07:38:41;;;;;;;3.85;3.55;;;;;;;;;;2084873;28;20033;-68
2021/08/27 07:39:59;;;;;;;3.35;3.15;;;;;;;;;;2077372;28;20065;-69
2021/08/27 07:41:18;;;;;;;4.13;3.78;;;;;;;;;;2082052;28;20475;-68
2021/08/27 07:42:40;;;;;;;4.18;3.75;;;;;;;;;;2080161;28;20033;-69
2021/08/27 07:44:01;;;;;;;3.27;3.03;;;;;;;;;;2080233;28;20057;-69
2021/08/27 07:45:20;;;;;;;5.68;3.20;;;;;;;;;;2082862;28;20243;-69
2021/08/27 07:46:39;;;;;;;5.35;3.28;;;;;;;;;;2078950;28;20034;-69
2021/08/27 07:47:58;;;;;;;3.88;3.47;;;;;;;;;;2080713;28;20108;-69
2021/08/27 07:49:17;;;;;;;3.58;3.30;;;;;;;;;;2079001;28;20187;-69
2021/08/27 07:50:36;;;;;;;2.88;2.67;;;;;;;;;;2081070;28;20026;-68
2021/08/27 07:51:57;;;;;;;3.00;2.80;;;;;;;;;;2079736;28;20037;-68
2021/08/27 07:53:16;;;;;;;3.55;2.83;;;;;;;;;;2084656;28;20491;-68
2021/08/27 07:54:34;;;;;;;2.92;2.65;;;;;;;;;;2077990;28;20034;-68
2021/08/27 07:55:53;;;;;;;3.08;2.85;;;;;;;;;;2079193;28;20037;-68
2021/08/27 07:57:12;;;;;;;3.03;2.83;;;;;;;;;;2084101;28;20033;-68
2021/08/27 07:58:31;;;;;;;4.55;3.78;;;;;;;;;;2083141;28;20176;-69
2021/08/27 07:59:50;;;;;;;7.28;6.60;;;;;;;;;;2077397;28;20021;-68
2021/08/27 08:01:08;;;;;;;4.85;3.42;;;;;;;;;;2080273;28;20025;-68